createdAt,value
2019-01-30T00:02:57.472Z,1.41
2019-01-30T00:06:00.980Z,1.49
2019-01-30T00:09:08.827Z,1.25
2019-01-30T00:12:12.344Z,1.32
2019-01-30T00:15:15.706Z,1.45
2019-01-30T00:18:19.300Z,1.25
2019-01-30T00:21:22.782Z,1.25
2019-01-30T00:24:25.800Z,1.38
2019-01-30T00:27:29.456Z,1.57
2019-01-30T00:30:32.683Z,1.54
2019-01-30T00:33:35.876Z,1.50
2019-01-30T00:36:39.137Z,1.43
2019-01-30T00:39:43.137Z,1.41
2019-01-30T00:42:46.331Z,1.43
2019-01-30T00:45:49.562Z,1.72
2019-01-30T00:48:53.043Z,1.47
2019-01-30T00:51:56.947Z,1.40
2019-01-30T00:55:00.524Z,1.44
2019-01-30T00:58:04.883Z,1.44
2019-01-30T01:01:07.852Z,1.50
2019-01-30T01:04:11.386Z,1.32
2019-01-30T01:07:14.663Z,1.36
2019-01-30T01:10:18.470Z,1.27
2019-01-30T01:13:21.392Z,1.38
2019-01-30T01:16:24.332Z,1.37
2019-01-30T01:19:27.578Z,1.23
2019-01-30T01:22:30.506Z,1.27
2019-01-30T01:25:33.687Z,1.03
2019-01-30T01:28:36.634Z,1.08
2019-01-30T01:31:39.910Z,1.12
2019-01-30T01:34:43.163Z,0.97
2019-01-30T01:37:46.072Z,0.97
2019-01-30T01:40:48.985Z,1.12
2019-01-30T01:43:51.953Z,1.21
2019-01-30T01:46:54.852Z,1.34
2019-01-30T01:49:58.104Z,1.13
2019-01-30T01:53:01.319Z,1.19
2019-01-30T01:56:05.020Z,1.21
2019-01-30T01:59:07.956Z,1.23
2019-01-30T02:02:11.528Z,1.27
2019-01-30T02:05:17.610Z,1.19
2019-01-30T02:08:21.626Z,1.10
2019-01-30T02:11:24.892Z,1.28
2019-01-30T02:14:28.187Z,1.21
2019-01-30T02:17:31.107Z,1.22
2019-01-30T02:20:34.294Z,0.98
2019-01-30T02:23:37.495Z,0.99
2019-01-30T02:26:40.401Z,1.06
2019-01-30T02:29:43.358Z,1.18
2019-01-30T02:32:46.965Z,1.16
2019-01-30T02:35:49.900Z,1.25
2019-01-30T02:38:53.368Z,1.23
2019-01-30T02:41:56.396Z,1.29
2019-01-30T02:44:59.612Z,1.18
2019-01-30T02:48:03.134Z,1.30
2019-01-30T02:51:06.155Z,1.28
2019-01-30T02:54:09.067Z,1.41
2019-01-30T02:57:12.018Z,1.29
2019-01-30T03:00:23.135Z,1.33
2019-01-30T03:03:26.139Z,1.32
2019-01-30T03:06:29.443Z,1.28
2019-01-30T03:09:32.657Z,1.38
2019-01-30T03:12:35.964Z,1.34
2019-01-30T03:15:38.870Z,1.30
2019-01-30T03:18:41.794Z,1.34
2019-01-30T03:21:46.877Z,1.44
2019-01-30T03:24:50.444Z,1.32
2019-01-30T03:27:53.789Z,1.27
2019-01-30T03:30:56.710Z,1.30
2019-01-30T03:33:59.909Z,1.35
2019-01-30T03:37:02.825Z,1.23
2019-01-30T03:40:08.991Z,1.10
2019-01-30T03:43:12.266Z,1.13
2019-01-30T03:46:15.534Z,0.96
2019-01-30T03:49:18.847Z,1.18
2019-01-30T03:52:22.084Z,1.21
2019-01-30T03:55:25.370Z,1.18
2019-01-30T03:58:28.707Z,1.18
2019-01-30T04:01:32.249Z,1.16
2019-01-30T04:04:35.503Z,1.27
2019-01-30T04:07:38.418Z,1.16
2019-01-30T04:10:41.359Z,1.04
2019-01-30T04:13:44.947Z,1.15
2019-01-30T04:16:48.530Z,1.16
2019-01-30T04:19:52.334Z,1.19
2019-01-30T04:22:55.259Z,1.08
2019-01-30T04:25:58.546Z,1.15
2019-01-30T04:29:01.807Z,1.14
2019-01-30T04:32:05.542Z,1.20
2019-01-30T04:35:09.068Z,1.13
2019-01-30T04:38:12.729Z,1.11
2019-01-30T04:41:16.034Z,1.06
2019-01-30T04:44:19.307Z,1.08
2019-01-30T04:47:22.503Z,1.05
2019-01-30T04:50:26.125Z,1.05
2019-01-30T04:53:29.309Z,1.12
2019-01-30T04:56:32.535Z,1.14
2019-01-30T04:59:35.971Z,1.19
2019-01-30T05:02:40.384Z,1.18
2019-01-30T05:05:43.305Z,1.21
2019-01-30T05:08:46.220Z,1.23
2019-01-30T05:11:49.471Z,1.25
2019-01-30T05:14:52.379Z,1.32
2019-01-30T05:17:55.937Z,1.29
2019-01-30T05:20:59.193Z,1.25
2019-01-30T05:24:02.474Z,1.24
2019-01-30T05:27:05.992Z,1.24
2019-01-30T05:30:14.838Z,1.32
2019-01-30T05:33:18.459Z,1.25
2019-01-30T05:36:21.380Z,1.25
2019-01-30T05:39:24.303Z,1.18
2019-01-30T05:42:27.616Z,1.12
2019-01-30T05:45:30.880Z,1.13
2019-01-30T05:48:33.801Z,1.23
2019-01-30T05:51:36.787Z,1.12
2019-01-30T05:54:40.434Z,1.17
2019-01-30T05:57:43.555Z,1.21
2019-01-30T06:00:46.831Z,1.27
2019-01-30T06:03:49.754Z,1.22
2019-01-30T06:06:53.007Z,1.23
2019-01-30T06:09:55.919Z,1.28
2019-01-30T06:12:58.842Z,1.27
2019-01-30T06:16:02.672Z,1.21
2019-01-30T06:19:05.749Z,1.21
2019-01-30T06:22:09.344Z,1.26
2019-01-30T06:25:13.298Z,1.25
2019-01-30T06:28:16.278Z,1.22
2019-01-30T06:31:19.203Z,1.14
2019-01-30T06:34:22.132Z,1.17
2019-01-30T06:37:25.420Z,1.21
2019-01-30T06:40:31.940Z,1.24
2019-01-30T06:43:35.219Z,1.14
2019-01-30T06:46:38.420Z,1.16
2019-01-30T06:49:41.974Z,1.18
2019-01-30T06:52:45.225Z,1.12
2019-01-30T06:55:48.534Z,1.18
2019-01-30T06:58:52.852Z,1.18
2019-01-30T07:01:55.767Z,1.26
2019-01-30T07:04:58.998Z,1.20
2019-01-30T07:08:01.977Z,1.12
2019-01-30T07:11:10.737Z,1.16
2019-01-30T07:14:09.739Z,1.17
2019-01-30T07:17:13.015Z,1.23
2019-01-30T07:20:16.462Z,1.24
2019-01-30T07:23:19.699Z,2.05
2019-01-30T07:26:22.896Z,2.75
2019-01-30T07:29:25.803Z,1.69
2019-01-30T07:32:29.080Z,1.47
2019-01-30T07:35:32.004Z,1.36
2019-01-30T07:38:35.188Z,1.29
2019-01-30T07:41:38.456Z,1.30
2019-01-30T07:44:50.431Z,1.27
2019-01-30T07:47:46.527Z,1.35
2019-01-30T07:50:49.566Z,1.35
2019-01-30T07:53:54.769Z,1.37
2019-01-30T07:56:57.575Z,1.35
2019-01-30T08:00:00.524Z,1.53
2019-01-30T08:03:03.895Z,1.42
2019-01-30T08:06:06.826Z,1.44
2019-01-30T08:09:09.718Z,9.52
2019-01-30T08:12:12.947Z,7.86
2019-01-30T08:15:17.331Z,4.45
2019-01-30T08:18:20.519Z,3.19
2019-01-30T08:21:24.777Z,2.61
2019-01-30T08:24:28.189Z,2.24
2019-01-30T08:27:31.602Z,2.01
2019-01-30T08:30:36.415Z,1.88
2019-01-30T08:33:40.027Z,1.88
2019-01-30T08:36:43.219Z,1.97
2019-01-30T08:39:46.795Z,1.83
2019-01-30T08:42:52.148Z,1.76
2019-01-30T08:45:55.036Z,1.72
2019-01-30T08:48:58.362Z,1.83
2019-01-30T08:52:01.420Z,1.75
2019-01-30T08:55:04.889Z,1.70
2019-01-30T08:58:08.166Z,1.68
2019-01-30T09:01:11.075Z,1.60
2019-01-30T09:04:14.349Z,1.61
2019-01-30T09:07:17.595Z,1.59
2019-01-30T09:10:22.367Z,1.66
2019-01-30T09:13:25.784Z,1.74
2019-01-30T09:16:29.431Z,1.82
2019-01-30T09:19:32.931Z,1.72
2019-01-30T09:22:36.170Z,1.66
2019-01-30T09:25:39.382Z,1.65
2019-01-30T09:28:43.415Z,1.66
2019-01-30T09:31:46.323Z,1.59
2019-01-30T09:34:49.671Z,1.60
2019-01-30T09:37:52.819Z,1.83
2019-01-30T09:40:56.022Z,1.63
2019-01-30T09:43:58.947Z,1.59
2019-01-30T09:47:02.183Z,1.62
2019-01-30T09:50:08.972Z,1.63
2019-01-30T09:53:11.948Z,1.70
2019-01-30T09:56:15.609Z,1.79
2019-01-30T09:59:19.295Z,1.76
2019-01-30T10:02:22.489Z,1.76
2019-01-30T10:05:25.808Z,1.67
2019-01-30T10:08:29.447Z,1.65
2019-01-30T10:11:32.722Z,1.78
2019-01-30T10:14:36.000Z,1.78
2019-01-30T10:17:38.931Z,1.77
2019-01-30T10:20:44.623Z,1.77
2019-01-30T10:23:47.897Z,1.78
2019-01-30T10:26:51.208Z,1.85
2019-01-30T10:29:54.468Z,1.97
2019-01-30T10:32:57.468Z,1.81
2019-01-30T10:36:00.427Z,1.86
2019-01-30T10:39:09.630Z,1.78
2019-01-30T10:42:12.541Z,1.80
2019-01-30T10:45:15.771Z,1.70
2019-01-30T10:48:18.745Z,2.30
2019-01-30T10:51:21.673Z,2.86
2019-01-30T10:54:25.852Z,2.02
2019-01-30T10:57:29.061Z,2.00
2019-01-30T11:00:39.340Z,2.01
2019-01-30T11:03:42.367Z,2.01
2019-01-30T11:06:45.899Z,2.00
2019-01-30T11:09:49.290Z,1.95
2019-01-30T11:12:52.490Z,2.00
2019-01-30T11:15:55.422Z,1.88
2019-01-30T11:18:58.316Z,1.80
2019-01-30T11:22:01.260Z,1.76
2019-01-30T11:25:09.289Z,1.79
2019-01-30T11:28:12.334Z,1.77
2019-01-30T11:31:15.554Z,1.88
2019-01-30T11:34:18.511Z,1.79
2019-01-30T11:37:21.555Z,1.81
2019-01-30T11:40:25.422Z,1.87
2019-01-30T11:43:29.230Z,1.77
2019-01-30T11:46:33.145Z,1.75
2019-01-30T11:49:36.789Z,1.81
2019-01-30T11:52:39.821Z,1.81
2019-01-30T11:55:43.108Z,1.95
2019-01-30T11:58:46.033Z,1.87
2019-01-30T12:01:48.981Z,1.90
2019-01-30T12:04:52.299Z,1.90
2019-01-30T12:07:55.481Z,1.91
2019-01-30T12:10:58.810Z,1.98
2019-01-30T12:14:02.623Z,2.05
2019-01-30T12:17:05.542Z,1.89
2019-01-30T12:20:09.709Z,4.02
2019-01-30T12:23:13.206Z,3.65
2019-01-30T12:26:16.395Z,2.84
2019-01-30T12:29:19.687Z,2.63
2019-01-30T12:32:22.912Z,2.51
2019-01-30T12:35:26.621Z,2.48
2019-01-30T12:38:29.859Z,2.40
2019-01-30T12:41:35.655Z,2.35
2019-01-30T12:44:37.848Z,2.19
2019-01-30T12:47:41.161Z,2.06
2019-01-30T12:50:44.423Z,2.20
2019-01-30T12:53:47.341Z,2.13
2019-01-30T12:56:50.275Z,2.25
2019-01-30T12:59:53.790Z,2.17
2019-01-30T13:02:56.970Z,2.35
2019-01-30T13:05:59.897Z,2.32
2019-01-30T13:09:07.065Z,2.25
2019-01-30T13:12:10.744Z,2.27
2019-01-30T13:15:15.983Z,2.43
2019-01-30T13:18:19.282Z,2.24
2019-01-30T13:21:22.500Z,2.20
2019-01-30T13:24:26.388Z,2.14
2019-01-30T13:27:29.595Z,2.14
2019-01-30T13:30:37.844Z,2.18
2019-01-30T13:33:41.087Z,2.14
2019-01-30T13:36:44.011Z,2.10
2019-01-30T13:39:46.952Z,2.09
2019-01-30T13:42:49.860Z,2.06
2019-01-30T13:45:53.102Z,2.25
2019-01-30T13:48:56.334Z,2.17
2019-01-30T13:51:59.370Z,2.09
2019-01-30T13:55:03.065Z,2.09
2019-01-30T13:58:05.946Z,1.98
2019-01-30T14:01:17.328Z,2.00
2019-01-30T14:04:13.974Z,2.00
2019-01-30T14:07:16.924Z,1.94
2019-01-30T14:10:20.196Z,1.91
2019-01-30T14:13:23.070Z,1.91
2019-01-30T14:16:26.037Z,1.94
2019-01-30T14:19:29.332Z,1.95
2019-01-30T14:22:32.601Z,1.95
2019-01-30T14:25:37.035Z,1.93
2019-01-30T14:28:39.996Z,1.97
2019-01-30T14:31:43.632Z,2.06
2019-01-30T14:34:47.579Z,2.01
2019-01-30T14:37:51.243Z,1.92
2019-01-30T14:40:54.537Z,1.96
2019-01-30T14:43:57.819Z,1.95
2019-01-30T14:47:00.793Z,3.45
2019-01-30T14:50:06.778Z,2.35
2019-01-30T14:53:10.048Z,2.14
2019-01-30T14:56:12.990Z,2.12
2019-01-30T14:59:16.245Z,2.00
2019-01-30T15:02:19.349Z,2.01
2019-01-30T15:05:23.068Z,2.01
2019-01-30T15:08:28.285Z,1.98
2019-01-30T15:11:31.319Z,1.98
2019-01-30T15:14:34.272Z,1.93
2019-01-30T15:17:37.339Z,1.96
2019-01-30T15:20:40.582Z,1.95
2019-01-30T15:23:43.883Z,1.97
2019-01-30T15:26:49.847Z,1.95
2019-01-30T15:29:53.275Z,1.99
2019-01-30T15:32:56.222Z,1.95
2019-01-30T15:35:59.131Z,1.89
2019-01-30T15:39:02.725Z,1.89
2019-01-30T15:42:07.825Z,1.90
2019-01-30T15:45:14.914Z,1.86
2019-01-30T15:48:17.937Z,1.80
2019-01-30T15:51:21.220Z,1.80
2019-01-30T15:54:24.177Z,1.80
2019-01-30T15:57:27.103Z,1.82
2019-01-30T16:00:46.447Z,1.80
2019-01-30T16:03:49.717Z,1.84
2019-01-30T16:06:52.703Z,1.85
2019-01-30T16:09:56.618Z,1.85
2019-01-30T16:12:59.526Z,1.87
2019-01-30T16:16:04.859Z,1.86
2019-01-30T16:19:08.185Z,1.96
2019-01-30T16:22:12.672Z,1.94
2019-01-30T16:25:18.884Z,1.88
2019-01-30T16:28:22.210Z,1.92
2019-01-30T16:31:25.225Z,1.87
2019-01-30T16:34:28.161Z,1.97
2019-01-30T16:37:32.475Z,1.94
2019-01-30T16:40:36.543Z,1.92
2019-01-30T16:43:40.070Z,1.91
2019-01-30T16:46:43.251Z,1.99
2019-01-30T16:49:46.593Z,3.72
2019-01-30T16:52:49.598Z,2.29
2019-01-30T16:55:54.040Z,2.00
2019-01-30T16:58:56.978Z,1.96
2019-01-30T17:02:01.321Z,1.88
2019-01-30T17:05:08.371Z,1.88
2019-01-30T17:08:11.733Z,1.97
2019-01-30T17:11:15.829Z,1.80
2019-01-30T17:14:18.789Z,1.81
2019-01-30T17:17:22.447Z,1.76
2019-01-30T17:20:31.988Z,1.78
2019-01-30T17:23:35.121Z,1.61
2019-01-30T17:26:38.389Z,1.73
2019-01-30T17:29:41.799Z,1.64
2019-01-30T17:32:44.736Z,1.72
2019-01-30T17:35:48.087Z,1.75
2019-01-30T17:38:51.176Z,1.64
2019-01-30T17:41:54.163Z,1.42
2019-01-30T17:44:58.136Z,1.54
2019-01-30T17:48:01.194Z,1.59
2019-01-30T17:51:04.214Z,1.72
2019-01-30T17:54:07.445Z,1.61
2019-01-30T17:57:10.504Z,1.54
2019-01-30T18:00:30.956Z,1.70
2019-01-30T18:03:34.363Z,1.65
2019-01-30T18:06:37.301Z,1.67
2019-01-30T18:09:40.583Z,1.59
2019-01-30T18:12:43.828Z,1.39
2019-01-30T18:15:47.155Z,1.48
2019-01-30T18:18:50.681Z,1.56
2019-01-30T18:21:53.615Z,1.50
2019-01-30T18:24:57.716Z,1.61
2019-01-30T18:28:01.411Z,1.60
2019-01-30T18:31:05.041Z,1.63
2019-01-30T18:34:07.997Z,1.70
2019-01-30T18:37:11.305Z,1.56
2019-01-30T18:40:17.190Z,1.53
2019-01-30T18:43:21.248Z,1.48
2019-01-30T18:46:24.607Z,1.55
2019-01-30T18:49:27.618Z,1.61
2019-01-30T18:52:30.719Z,1.56
2019-01-30T18:55:34.213Z,1.67
2019-01-30T18:58:37.151Z,1.63
2019-01-30T19:01:40.080Z,1.64
2019-01-30T19:04:43.850Z,1.75
2019-01-30T19:07:47.095Z,1.74
2019-01-30T19:10:50.700Z,1.65
2019-01-30T19:13:54.231Z,1.62
2019-01-30T19:16:57.908Z,1.62
2019-01-30T19:20:01.142Z,1.68
2019-01-30T19:23:07.055Z,1.75
2019-01-30T19:26:10.234Z,1.72
2019-01-30T19:29:13.172Z,1.64
2019-01-30T19:32:16.122Z,1.64
2019-01-30T19:35:19.235Z,1.49
2019-01-30T19:38:22.191Z,1.55
2019-01-30T19:41:25.168Z,1.50
2019-01-30T19:44:28.143Z,1.56
2019-01-30T19:47:31.066Z,1.62
2019-01-30T19:50:34.071Z,1.51
2019-01-30T19:53:37.337Z,1.68
2019-01-30T19:56:40.229Z,1.68
2019-01-30T19:59:43.467Z,1.65
2019-01-30T20:02:46.711Z,1.72
2019-01-30T20:05:50.114Z,1.76
2019-01-30T20:08:53.448Z,1.73
2019-01-30T20:11:57.153Z,1.62
2019-01-30T20:15:00.178Z,1.71
2019-01-30T20:18:04.023Z,1.80
2019-01-30T20:21:07.329Z,1.61
2019-01-30T20:24:10.647Z,1.74
2019-01-30T20:27:13.593Z,1.79
2019-01-30T20:30:19.517Z,1.81
2019-01-30T20:33:22.458Z,1.86
2019-01-30T20:36:25.424Z,1.82
2019-01-30T20:39:28.630Z,1.78
2019-01-30T20:42:31.594Z,1.76
2019-01-30T20:45:34.517Z,1.77
2019-01-30T20:48:45.812Z,1.84
2019-01-30T20:51:42.663Z,1.83
2019-01-30T20:54:46.310Z,1.79
2019-01-30T20:57:49.627Z,1.81
2019-01-30T21:00:52.558Z,1.76
2019-01-30T21:03:55.624Z,1.79
2019-01-30T21:06:58.984Z,1.87
2019-01-30T21:10:02.012Z,1.84
2019-01-30T21:13:24.837Z,2.76
2019-01-30T21:16:28.085Z,2.18
2019-01-30T21:19:31.397Z,2.03
2019-01-30T21:22:34.628Z,1.98
2019-01-30T21:25:37.541Z,1.88
2019-01-30T21:28:40.455Z,1.88
2019-01-30T21:31:43.366Z,1.90
2019-01-30T21:34:46.349Z,1.88
2019-01-30T21:37:49.947Z,1.78
2019-01-30T21:40:53.932Z,1.79
2019-01-30T21:43:56.896Z,1.76
2019-01-30T21:47:01.476Z,1.80
2019-01-30T21:50:06.392Z,1.79
2019-01-30T21:53:09.713Z,1.88
2019-01-30T21:56:12.940Z,1.88
2019-01-30T21:59:15.860Z,1.82
2019-01-30T22:02:18.796Z,1.85
2019-01-30T22:05:22.496Z,1.81
2019-01-30T22:08:25.431Z,1.81
2019-01-30T22:11:28.866Z,1.77
2019-01-30T22:14:31.791Z,1.78
2019-01-30T22:17:34.992Z,1.75
2019-01-30T22:20:37.923Z,1.77
2019-01-30T22:23:41.184Z,1.67
2019-01-30T22:26:44.089Z,1.74
2019-01-30T22:29:47.756Z,1.59
2019-01-30T22:32:50.982Z,1.60
2019-01-30T22:35:54.005Z,1.67
2019-01-30T22:38:57.648Z,1.67
2019-01-30T22:42:02.458Z,1.61
2019-01-30T22:45:07.716Z,1.79
2019-01-30T22:48:11.037Z,1.73
2019-01-30T22:51:13.939Z,1.50
2019-01-30T22:54:17.504Z,1.66
2019-01-30T22:57:20.402Z,1.63
2019-01-30T23:01:07.334Z,1.61
2019-01-30T23:05:06.127Z,1.66
2019-01-30T23:08:30.392Z,1.73
2019-01-30T23:12:13.780Z,1.85
2019-01-30T23:15:30.492Z,1.87
2019-01-30T23:18:57.079Z,1.83
2019-01-30T23:22:22.198Z,1.82
2019-01-30T23:26:02.862Z,1.79
2019-01-30T23:30:01.243Z,1.83
2019-01-30T23:33:48.370Z,1.83
2019-01-30T23:37:31.722Z,1.75
2019-01-30T23:41:27.115Z,1.68
2019-01-30T23:45:14.859Z,1.75
2019-01-30T23:49:19.616Z,1.67
2019-01-30T23:53:28.448Z,1.78
2019-01-30T23:57:31.635Z,1.76
